Time;durP1;ratioP1;P1;durP2;ratioP2;P2;SDS_P1;SDS_P2;PMS_P1;PMS_P2;Temp;Humidity;BMP_temperature;BMP_pressure;BME280_temperature;BME280_humidity;BME280_pressure;Samples;Min_cycle;Max_cycle;Signal;HPM_P1;HPM_P2
2023/08/03 00:00:19;;;;;;;2.85;1.17;;;16.50;1.00;;;;;;5004512;28;20275;-75
2023/08/03 00:02:48;;;;;;;1.58;0.98;;;16.60;99.90;;;;;;5004177;28;20245;-75
2023/08/03 00:05:17;;;;;;;4.10;1.40;;;16.60;1.00;;;;;;5003703;28;20274;-75
2023/08/03 00:07:44;;;;;;;2.28;0.98;;;16.50;1.00;;;;;;5003452;28;20298;-76
2023/08/03 00:10:10;;;;;;;3.35;1.60;;;16.60;99.90;;;;;;5003755;28;20187;-75
2023/08/03 00:12:36;;;;;;;2.40;1.17;;;16.60;95.10;;;;;;5003925;28;20172;-76
2023/08/03 00:15:01;;;;;;;3.83;1.27;;;16.60;75.90;;;;;;5003705;28;20183;-75
2023/08/03 00:17:27;;;;;;;2.60;1.10;;;16.60;99.90;;;;;;5003443;28;20555;-75
2023/08/03 00:19:53;;;;;;;2.88;1.10;;;16.60;1.00;;;;;;5005417;28;20184;-76
2023/08/03 00:22:18;;;;;;;3.20;1.35;;;16.70;1.00;;;;;;5011771;22;20223;-86
2023/08/03 00:24:44;;;;;;;3.25;1.55;;;16.60;1.00;;;;;;5006318;28;20287;-86
2023/08/03 00:27:10;;;;;;;2.65;1.20;;;16.60;95.70;;;;;;5003395;28;20203;-86
2023/08/03 00:29:35;;;;;;;4.10;1.30;;;16.40;1.00;;;;;;5003715;28;20190;-86
2023/08/03 00:32:01;;;;;;;2.90;1.10;;;16.50;99.90;;;;;;5006249;28;20178;-87
2023/08/03 00:34:30;;;;;;;2.60;1.40;;;16.40;1.00;;;;;;5003582;28;20436;-85
2023/08/03 00:36:56;;;;;;;2.47;1.20;;;16.30;99.90;;;;;;5003562;28;20203;-85
2023/08/03 00:39:21;;;;;;;2.58;1.15;;;16.00;99.90;;;;;;5003219;28;20732;-85
2023/08/03 00:41:47;;;;;;;3.17;1.20;;;16.10;1.00;;;;;;5003017;28;20637;-86
2023/08/03 00:44:13;;;;;;;5.07;1.58;;;16.10;1.00;;;;;;5004846;28;20271;-85
2023/08/03 00:46:39;;;;;;;4.10;1.17;;;16.30;99.90;;;;;;5002011;28;20877;-87
2023/08/03 00:49:04;;;;;;;2.90;1.52;;;16.00;99.90;;;;;;5005343;28;20569;-85
2023/08/03 00:51:30;;;;;;;3.55;1.30;;;16.10;99.90;;;;;;5003297;28;20246;-85
2023/08/03 00:53:56;;;;;;;5.55;1.40;;;16.30;1.00;;;;;;5004540;28;20184;-87
2023/08/03 00:56:21;;;;;;;4.63;1.33;;;16.00;99.90;;;;;;5004551;28;20669;-86
2023/08/03 00:58:47;;;;;;;2.65;1.30;;;16.20;1.00;;;;;;5004979;28;20184;-85
2023/08/03 01:01:13;;;;;;;4.22;1.60;;;16.20;1.00;;;;;;5004572;28;20556;-86
2023/08/03 01:03:38;;;;;;;3.42;1.63;;;16.20;99.90;;;;;;5004283;28;20214;-85
2023/08/03 01:06:04;;;;;;;5.25;1.15;;;16.30;1.00;;;;;;5021188;28;20567;-85
2023/08/03 01:08:30;;;;;;;3.38;1.20;;;16.30;99.90;;;;;;5009280;28;20667;-87
2023/08/03 01:10:56;;;;;;;2.65;1.30;;;16.20;99.90;;;;;;5007836;28;20203;-86
2023/08/03 01:13:22;;;;;;;3.05;1.25;;;16.10;1.00;;;;;;5007874;28;20215;-87
2023/08/03 01:15:48;;;;;;;3.97;1.38;;;16.00;99.90;;;;;;5007868;28;20199;-86
2023/08/03 01:18:14;;;;;;;4.18;1.35;;;16.10;1.00;;;;;;5008132;28;20191;-86
2023/08/03 01:20:41;;;;;;;5.45;1.88;;;16.40;99.90;;;;;;5007948;28;20266;-87
2023/08/03 01:23:08;;;;;;;7.18;1.55;;;16.30;1.00;;;;;;5023159;28;20207;-87
2023/08/03 01:25:34;;;;;;;4.65;1.50;;;16.00;1.00;;;;;;5006955;28;20294;-87
2023/08/03 01:28:02;;;;;;;4.28;1.50;;;16.20;99.90;;;;;;5023564;28;20179;-86
2023/08/03 01:30:28;;;;;;;3.80;1.40;;;16.00;1.00;;;;;;5023538;28;20180;-86
2023/08/03 01:32:54;;;;;;;4.15;1.40;;;15.90;1.00;;;;;;5007673;28;20592;-86
2023/08/03 01:35:19;;;;;;;3.05;1.80;;;16.20;1.00;;;;;;5007814;28;20192;-86
2023/08/03 01:37:45;;;;;;;6.90;1.70;;;16.00;1.00;;;;;;5007466;28;20666;-86
2023/08/03 01:40:11;;;;;;;4.93;1.30;;;16.20;1.00;;;;;;5007544;28;20179;-87
2023/08/03 01:42:37;;;;;;;3.67;1.35;;;16.00;1.00;;;;;;5007164;28;20575;-86
2023/08/03 01:45:05;;;;;;;3.40;1.17;;;16.00;99.90;;;;;;5007307;28;20295;-85
2023/08/03 01:47:31;;;;;;;5.88;1.60;;;16.20;99.90;;;;;;5006567;28;20198;-87
2023/08/03 01:49:56;;;;;;;4.55;1.25;;;16.30;26.00;;;;;;5007525;28;20657;-85
2023/08/03 01:52:22;;;;;;;3.63;1.48;;;16.40;89.00;;;;;;5007645;28;20180;-87
2023/08/03 01:54:47;;;;;;;5.45;1.70;;;16.40;99.90;;;;;;5008267;28;20566;-85
2023/08/03 01:57:14;;;;;;;4.85;1.23;;;16.80;1.00;;;;;;5007797;28;20203;-86
2023/08/03 01:59:40;;;;;;;4.93;1.60;;;16.80;1.00;;;;;;5010234;28;20203;-85
2023/08/03 02:02:06;;;;;;;6.15;1.35;;;16.50;99.90;;;;;;5008222;28;20300;-85
2023/08/03 02:04:32;;;;;;;3.92;1.10;;;16.60;99.90;;;;;;5007842;28;20211;-86
2023/08/03 02:07:09;;;;;;;4.63;1.60;;;16.60;1.00;;;;;;5008843;28;20199;-85
2023/08/03 02:09:34;;;;;;;2.35;1.25;;;16.50;99.90;;;;;;5007922;28;20185;-86
2023/08/03 02:12:00;;;;;;;5.43;1.40;;;16.60;99.90;;;;;;5007384;28;20175;-86
2023/08/03 02:14:25;;;;;;;5.22;1.38;;;16.80;1.00;;;;;;5009225;28;20226;-87
2023/08/03 02:16:51;;;;;;;3.88;1.90;;;16.60;39.90;;;;;;5007281;28;20203;-85
2023/08/03 02:19:17;;;;;;;3.83;1.10;;;16.60;99.90;;;;;;5008115;28;20727;-84
2023/08/03 02:21:42;;;;;;;3.63;1.00;;;16.60;96.80;;;;;;5008526;28;21172;-86
2023/08/03 02:24:08;;;;;;;4.60;2.17;;;16.70;1.00;;;;;;5007739;28;20204;-86
2023/08/03 02:26:33;;;;;;;5.25;1.27;;;16.70;99.90;;;;;;5008323;28;20230;-86
2023/08/03 02:28:59;;;;;;;7.35;1.73;;;16.60;1.00;;;;;;5009322;28;20184;-86
2023/08/03 02:31:24;;;;;;;4.15;1.20;;;16.50;99.90;;;;;;5008694;28;20179;-85
2023/08/03 02:33:50;;;;;;;6.18;1.42;;;16.60;79.50;;;;;;5006495;28;20175;-86
2023/08/03 02:36:16;;;;;;;2.88;1.15;;;16.90;1.00;;;;;;5008358;28;20207;-85
2023/08/03 02:38:41;;;;;;;4.32;1.20;;;16.70;99.90;;;;;;5009217;28;20183;-85
2023/08/03 02:41:07;;;;;;;3.25;1.15;;;16.60;99.90;;;;;;5008026;28;20279;-85
2023/08/03 02:43:32;;;;;;;4.28;1.27;;;16.50;1.00;;;;;;5007882;28;20241;-85
2023/08/03 02:45:58;;;;;;;6.15;1.52;;;16.60;99.90;;;;;;5006588;28;20708;-85
2023/08/03 02:48:23;;;;;;;5.90;1.38;;;16.60;1.00;;;;;;5008245;28;20175;-86
2023/08/03 02:50:49;;;;;;;6.00;1.63;;;16.80;1.00;;;;;;5009504;28;20254;-86
2023/08/03 02:53:15;;;;;;;2.97;1.10;;;16.60;99.90;;;;;;5007530;28;20242;-86
2023/08/03 02:55:40;;;;;;;3.80;1.17;;;16.60;99.90;;;;;;5008657;28;20274;-86
2023/08/03 02:58:06;;;;;;;6.45;1.23;;;17.00;1.00;;;;;;5007801;28;20274;-85
2023/08/03 03:00:32;;;;;;;4.50;1.45;;;16.80;1.00;;;;;;5008011;28;20241;-86
2023/08/03 03:02:57;;;;;;;3.97;1.02;;;16.80;1.00;;;;;;5009368;28;20187;-86
2023/08/03 03:05:23;;;;;;;3.22;1.02;;;16.80;1.00;;;;;;5007851;28;20219;-86
2023/08/03 03:07:48;;;;;;;3.85;1.10;;;16.80;1.00;;;;;;5009304;28;20266;-87
2023/08/03 03:10:14;;;;;;;4.63;1.05;;;16.90;1.00;;;;;;5008904;28;20183;-86
2023/08/03 03:12:40;;;;;;;4.97;1.02;;;16.90;1.00;;;;;;5009813;28;20176;-87
2023/08/03 03:15:06;;;;;;;3.53;0.88;;;16.80;1.00;;;;;;5008590;28;20223;-86
2023/08/03 03:17:32;;;;;;;2.53;1.00;;;16.80;1.00;;;;;;5008532;28;20281;-87
2023/08/03 03:19:58;;;;;;;3.25;1.15;;;16.80;1.00;;;;;;5009351;28;20203;-87
2023/08/03 03:22:23;;;;;;;4.35;1.15;;;16.70;99.90;;;;;;5009018;28;21146;-86
2023/08/03 03:24:49;;;;;;;3.97;1.10;;;16.70;99.90;;;;;;5008483;28;20210;-87
2023/08/03 03:27:14;;;;;;;2.15;1.00;;;16.70;1.00;;;;;;5008227;28;20204;-86
2023/08/03 03:29:40;;;;;;;4.25;1.05;;;16.70;1.00;;;;;;5008524;28;20175;-85
2023/08/03 03:32:06;;;;;;;3.00;0.90;;;16.60;1.00;;;;;;5009530;28;20200;-86
2023/08/03 03:34:32;;;;;;;2.50;1.10;;;16.60;1.00;;;;;;5008346;28;20271;-85
2023/08/03 03:36:57;;;;;;;4.65;1.20;;;16.60;99.90;;;;;;5007216;28;20396;-86
2023/08/03 03:39:23;;;;;;;2.88;1.13;;;16.80;1.00;;;;;;5007665;28;20187;-86
2023/08/03 03:41:49;;;;;;;1.83;1.05;;;16.50;1.00;;;;;;5007381;28;20182;-87
2023/08/03 03:44:14;;;;;;;2.97;0.90;;;16.60;1.00;;;;;;5007989;28;20190;-86
2023/08/03 03:46:40;;;;;;;3.65;1.05;;;17.00;1.00;;;;;;5006863;28;20747;-86
2023/08/03 03:49:05;;;;;;;2.10;0.95;;;16.60;1.00;;;;;;5008846;28;20207;-85
2023/08/03 03:51:31;;;;;;;3.50;1.33;;;16.60;1.00;;;;;;5023868;28;20175;-86
2023/08/03 03:53:56;;;;;;;3.60;1.20;;;16.60;1.00;;;;;;5007825;28;20191;-86
2023/08/03 03:56:22;;;;;;;4.78;1.10;;;16.60;99.90;;;;;;5007115;28;20265;-86
2023/08/03 03:58:47;;;;;;;3.13;1.13;;;16.60;1.00;;;;;;5009023;28;20241;-86
2023/08/03 04:01:13;;;;;;;3.40;1.00;;;16.60;1.00;;;;;;5007273;28;20274;-88
2023/08/03 04:03:39;;;;;;;3.85;1.02;;;16.70;99.90;;;;;;5009339;28;20245;-89
2023/08/03 04:06:04;;;;;;;3.78;1.00;;;17.20;99.90;;;;;;5009373;28;20386;-87
2023/08/03 04:08:30;;;;;;;2.47;0.90;;;18.00;1.00;;;;;;5012223;28;20214;-87
2023/08/03 04:10:55;;;;;;;3.70;0.90;;;17.30;1.00;;;;;;5010226;28;20290;-87
2023/08/03 04:13:21;;;;;;;2.78;0.98;;;16.90;1.00;;;;;;5009871;28;20191;-86
2023/08/03 04:15:46;;;;;;;3.55;0.90;;;16.80;1.00;;;;;;5007594;28;20252;-87
2023/08/03 04:18:12;;;;;;;2.17;0.80;;;16.90;99.90;;;;;;5008438;28;20187;-87
2023/08/03 04:20:38;;;;;;;1.73;0.70;;;16.90;99.90;;;;;;5007624;28;20187;-86
2023/08/03 04:23:03;;;;;;;3.03;0.90;;;17.00;99.90;;;;;;5008927;28;20369;-87
2023/08/03 04:25:29;;;;;;;3.28;0.60;;;16.90;99.90;;;;;;5010029;28;20195;-86
2023/08/03 04:27:54;;;;;;;2.10;0.70;;;17.20;99.90;;;;;;5009560;28;20194;-86
2023/08/03 04:30:20;;;;;;;2.42;0.60;;;17.00;99.90;;;;;;5009480;28;20266;-87
2023/08/03 04:32:46;;;;;;;3.00;0.60;;;17.30;99.90;;;;;;5007561;28;20203;-88
2023/08/03 04:35:11;;;;;;;2.42;0.70;;;17.10;99.90;;;;;;5009177;28;20274;-86
2023/08/03 04:37:37;;;;;;;2.75;0.77;;;17.10;99.90;;;;;;5008511;28;20214;-86
2023/08/03 04:40:04;;;;;;;1.45;0.60;;;17.10;99.90;;;;;;5008437;28;20691;-86
2023/08/03 04:42:29;;;;;;;1.45;0.50;;;17.10;99.90;;;;;;5012142;28;20220;-86
2023/08/03 04:44:56;;;;;;;3.30;0.80;;;17.20;99.90;;;;;;5012103;28;20230;-86
2023/08/03 04:47:21;;;;;;;1.83;0.65;;;17.10;99.90;;;;;;5012752;28;20254;-86
2023/08/03 04:49:47;;;;;;;1.35;0.60;;;17.10;99.90;;;;;;5013530;28;20175;-86
2023/08/03 04:52:13;;;;;;;2.42;0.60;;;17.20;99.90;;;;;;5012726;28;20261;-86
2023/08/03 04:54:39;;;;;;;1.33;0.45;;;17.20;99.90;;;;;;5011857;28;20266;-86
2023/08/03 04:57:05;;;;;;;1.90;0.73;;;17.20;99.90;;;;;;5012317;28;20245;-87
2023/08/03 04:59:30;;;;;;;1.60;0.77;;;17.20;99.90;;;;;;5013023;28;20184;-86
2023/08/03 05:01:56;;;;;;;3.13;0.80;;;17.50;99.90;;;;;;5011962;28;20184;-86
2023/08/03 05:04:21;;;;;;;1.92;0.80;;;17.20;99.90;;;;;;5011323;28;20191;-86
2023/08/03 05:06:47;;;;;;;2.17;0.60;;;17.30;99.90;;;;;;5011711;28;20207;-86
2023/08/03 05:09:12;;;;;;;1.65;0.68;;;17.30;99.90;;;;;;5011768;28;20179;-86
2023/08/03 05:11:38;;;;;;;2.30;0.60;;;17.30;99.90;;;;;;5011261;28;20183;-87
2023/08/03 05:14:03;;;;;;;3.13;0.70;;;17.30;99.90;;;;;;5010962;28;20174;-86
2023/08/03 05:16:29;;;;;;;1.67;0.60;;;17.20;99.90;;;;;;5009713;28;20848;-86
2023/08/03 05:18:55;;;;;;;1.50;0.85;;;17.20;99.90;;;;;;5011039;28;20179;-87
2023/08/03 05:21:20;;;;;;;1.35;0.60;;;17.20;99.90;;;;;;5012228;28;20183;-89
2023/08/03 05:23:46;;;;;;;1.42;0.60;;;17.30;99.90;;;;;;5012128;28;20207;-88
2023/08/03 05:26:12;;;;;;;3.05;0.57;;;17.30;99.90;;;;;;5013021;28;20218;-88
2023/08/03 05:28:38;;;;;;;1.17;0.40;;;17.30;99.90;;;;;;5011306;28;20179;-89
2023/08/03 05:31:05;;;;;;;2.15;0.60;;;17.70;99.60;;;;;;5010687;28;20258;-88
2023/08/03 05:33:33;;;;;;;2.95;0.70;;;17.40;91.00;;;;;;5009689;28;20257;-88
2023/08/03 05:35:59;;;;;;;2.25;0.43;;;17.50;81.40;;;;;;5011137;28;20235;-87
2023/08/03 05:38:25;;;;;;;2.72;0.68;;;17.50;74.70;;;;;;5011178;28;20242;-86
2023/08/03 05:40:50;;;;;;;1.10;0.52;;;17.50;45.00;;;;;;5009689;28;20555;-88
2023/08/03 05:43:16;;;;;;;1.48;0.57;;;17.50;81.70;;;;;;5009390;28;20195;-87
2023/08/03 05:45:50;;;;;;;2.33;0.70;;;17.60;46.10;;;;;;5008685;28;20230;-87
2023/08/03 05:48:20;;;;;;;2.40;0.57;;;17.60;78.90;;;;;;5026517;28;20294;-87
2023/08/03 05:50:48;;;;;;;1.27;0.57;;;17.60;90.40;;;;;;5009652;28;20179;-88
2023/08/03 05:53:14;;;;;;;2.92;0.50;;;17.60;96.20;;;;;;5024069;28;20287;-90
2023/08/03 05:55:41;;;;;;;1.73;0.90;;;17.60;62.90;;;;;;5009507;28;20743;-87
2023/08/03 05:58:10;;;;;;;1.63;0.60;;;17.60;88.40;;;;;;5009058;28;20457;-86
2023/08/03 06:01:30;;;;;;;1.75;0.70;;;17.60;28.10;;;;;;5015826;28;20235;-87
2023/08/03 06:03:56;;;;;;;2.17;0.70;;;19.10;1.10;;;;;;4902508;29;20194;-86
2023/08/03 06:06:22;;;;;;;2.15;0.68;;;17.60;1.00;;;;;;4984596;28;21249;-87
2023/08/03 06:08:53;;;;;;;1.58;0.82;;;17.60;1.00;;;;;;5005815;28;20219;-86
2023/08/03 06:11:20;;;;;;;1.38;0.52;;;17.40;99.90;;;;;;5005611;28;21217;-88
2023/08/03 06:13:47;;;;;;;1.77;0.70;;;18.00;1.00;;;;;;5005627;28;20278;-88
2023/08/03 06:16:13;;;;;;;4.05;0.55;;;17.80;1.00;;;;;;5005582;28;20226;-88
2023/08/03 06:18:49;;;;;;;1.08;0.50;;;17.90;1.00;;;;;;5007436;28;20600;-85
2023/08/03 06:21:16;;;;;;;2.65;0.77;;;18.00;1.00;;;;;;5008699;28;20290;-86
2023/08/03 06:23:51;;;;;;;1.60;0.63;;;18.10;1.00;;;;;;5024322;28;20690;-87
2023/08/03 06:26:18;;;;;;;2.47;0.65;;;18.20;1.00;;;;;;5010233;28;20210;-87
2023/08/03 06:28:44;;;;;;;5.13;0.73;;;18.20;1.00;;;;;;5010219;28;20861;-86
2023/08/03 06:31:15;;;;;;;1.38;0.70;;;18.20;1.00;;;;;;5009928;28;20186;-87
2023/08/03 06:33:43;;;;;;;1.27;0.70;;;18.70;1.00;;;;;;5010535;28;20297;-87
2023/08/03 06:36:11;;;;;;;1.88;0.80;;;19.90;1.00;;;;;;5010714;28;20261;-88
2023/08/03 06:38:37;;;;;;;2.00;0.82;;;20.40;1.00;;;;;;5009004;28;20194;-87
2023/08/03 06:41:03;;;;;;;1.10;0.50;;;19.80;1.00;;;;;;5013728;28;20176;-88
2023/08/03 06:43:30;;;;;;;1.80;0.75;;;19.80;1.00;;;;;;5014799;28;20266;-89
2023/08/03 06:45:55;;;;;;;2.03;0.90;;;19.40;99.90;;;;;;5013997;28;20288;-88
2023/08/03 06:48:22;;;;;;;1.92;0.82;;;19.00;1.00;;;;;;5013828;28;20279;-87
2023/08/03 06:50:48;;;;;;;2.28;0.60;;;19.00;1.00;;;;;;5011915;28;20179;-90
2023/08/03 06:53:14;;;;;;;1.42;0.50;;;19.00;1.00;;;;;;5010512;28;20195;-88
2023/08/03 06:55:40;;;;;;;1.05;0.50;;;18.90;1.00;;;;;;5011422;28;20210;-88
2023/08/03 06:58:05;;;;;;;1.02;0.55;;;18.80;99.90;;;;;;5009316;28;20183;-89
2023/08/03 07:00:31;;;;;;;1.27;0.40;;;18.90;99.90;;;;;;5009532;28;20222;-90
2023/08/03 07:02:57;;;;;;;1.77;0.60;;;18.90;1.00;;;;;;5012171;28;20675;-89
2023/08/03 07:05:22;;;;;;;4.07;0.70;;;19.80;99.90;;;;;;5011060;28;20747;-89
2023/08/03 07:07:49;;;;;;;2.80;0.60;;;21.70;99.90;;;;;;5012336;28;20183;-89
2023/08/03 07:10:15;;;;;;;2.85;0.40;;;22.70;1.00;;;;;;5012768;28;20190;-89
2023/08/03 07:12:42;;;;;;;2.22;0.68;;;23.10;1.00;;;;;;5010204;28;20647;-90
2023/08/03 07:15:08;;;;;;;0.82;0.30;;;22.30;1.00;;;;;;5009248;28;20660;-89
2023/08/03 07:17:33;;;;;;;0.63;0.30;;;21.70;1.00;;;;;;5012047;28;20238;-90
2023/08/03 07:19:59;;;;;;;0.73;0.32;;;21.60;1.00;;;;;;5011256;28;20207;-88
2023/08/03 07:22:25;;;;;;;2.35;0.50;;;20.90;1.00;;;;;;5010533;28;20207;-89
2023/08/03 07:24:52;;;;;;;1.65;0.57;;;20.30;1.00;;;;;;5010255;28;20219;-88
2023/08/03 07:27:26;;;;;;;1.33;0.40;;;20.10;1.00;;;;;;5012115;28;20832;-90
2023/08/03 07:29:51;;;;;;;0.95;0.55;;;20.30;1.00;;;;;;5010296;28;20207;-90
2023/08/03 07:32:17;;;;;;;0.38;0.20;;;20.30;1.00;;;;;;5009430;28;20222;-89
2023/08/03 07:34:46;;;;;;;0.65;0.30;;;20.30;1.00;;;;;;5010392;28;20272;-89
2023/08/03 07:37:11;;;;;;;1.08;0.38;;;20.30;1.00;;;;;;5011207;28;20204;-90
2023/08/03 07:39:37;;;;;;;1.30;0.55;;;20.30;1.00;;;;;;5012082;28;20679;-89
2023/08/03 07:42:03;;;;;;;0.75;0.30;;;20.60;1.00;;;;;;5027605;28;20187;-89
2023/08/03 07:44:34;;;;;;;0.77;0.40;;;20.50;1.00;;;;;;5012396;28;20247;-90
2023/08/03 07:47:00;;;;;;;1.60;0.40;;;20.60;1.00;;;;;;5011682;28;20203;-89
2023/08/03 07:49:36;;;;;;;7.45;0.50;;;20.70;1.00;;;;;;5012606;28;20631;-88
2023/08/03 07:52:06;;;;;;;0.68;0.40;;;20.70;1.00;;;;;;5011471;28;20841;-88
2023/08/03 07:54:34;;;;;;;0.70;0.20;;;20.60;1.00;;;;;;5011827;28;20245;-89
2023/08/03 07:57:00;;;;;;;0.75;0.28;;;20.90;1.00;;;;;;5010388;28;20583;-88
2023/08/03 07:59:35;;;;;;;0.77;0.32;;;21.00;1.00;;;;;;5010587;28;20186;-90
2023/08/03 08:02:01;;;;;;;1.55;0.38;;;21.10;1.00;;;;;;5009306;28;20194;-90
2023/08/03 08:04:26;;;;;;;2.20;1.08;;;21.10;1.00;;;;;;5010847;28;20175;-89
2023/08/03 08:06:52;;;;;;;0.40;0.20;;;21.20;1.00;;;;;;5010555;28;20227;-89
2023/08/03 08:09:17;;;;;;;1.40;0.30;;;21.00;1.00;;;;;;5011036;28;20661;-89
2023/08/03 08:11:43;;;;;;;0.20;0.20;;;21.00;1.00;;;;;;5013012;28;20203;-89
2023/08/03 08:14:12;;;;;;;0.93;0.25;;;21.10;1.00;;;;;;5011216;28;20178;-90
2023/08/03 08:16:38;;;;;;;0.43;0.30;;;21.00;1.00;;;;;;5011040;28;20595;-91
2023/08/03 08:19:04;;;;;;;1.25;0.40;;;20.80;1.00;;;;;;5016344;28;20183;-89
2023/08/03 08:21:30;;;;;;;1.75;0.35;;;20.90;1.00;;;;;;5015113;28;20179;-87
2023/08/03 08:23:55;;;;;;;0.40;0.30;;;21.10;1.00;;;;;;5015407;28;20657;-89
2023/08/03 08:26:49;;;;;;;1.02;0.25;;;21.10;1.00;;;;;;5018991;28;20211;-89
2023/08/03 08:29:15;;;;;;;0.50;0.43;;;21.70;1.00;;;;;;5009007;28;20771;-87
2023/08/03 08:31:41;;;;;;;1.20;0.20;;;21.30;1.00;;;;;;5006417;28;20255;-89
2023/08/03 08:34:07;;;;;;;0.52;0.35;;;21.30;1.00;;;;;;5007414;28;20270;-86
2023/08/03 08:36:32;;;;;;;0.55;0.40;;;21.50;1.00;;;;;;5007864;28;20225;-87
2023/08/03 08:38:58;;;;;;;0.47;0.30;;;21.60;1.00;;;;;;5008639;28;20532;-86
2023/08/03 08:41:24;;;;;;;0.65;0.40;;;21.50;1.00;;;;;;5010126;28;20183;-87
2023/08/03 08:43:49;;;;;;;1.30;0.30;;;21.30;1.00;;;;;;5009082;28;20187;-88
2023/08/03 08:46:15;;;;;;;1.35;0.47;;;21.20;1.00;;;;;;5008146;28;20301;-87
2023/08/03 08:48:41;;;;;;;0.57;0.28;;;21.20;1.00;;;;;;5008440;28;20270;-88
2023/08/03 08:51:08;;;;;;;2.00;0.32;;;21.20;1.00;;;;;;5008491;28;20211;-88
2023/08/03 08:53:35;;;;;;;5.05;0.50;;;21.00;1.00;;;;;;5010093;28;20178;-88
2023/08/03 08:56:00;;;;;;;0.75;0.25;;;20.90;1.00;;;;;;5008546;28;20203;-87
2023/08/03 08:58:27;;;;;;;0.40;0.40;;;20.90;1.00;;;;;;5010180;28;20527;-90
2023/08/03 09:01:01;;;;;;;0.45;0.30;;;20.90;1.00;;;;;;5008248;28;20673;-88
2023/08/03 09:03:27;;;;;;;1.48;0.30;;;21.00;1.00;;;;;;5010020;28;20230;-88
2023/08/03 09:05:59;;;;;;;0.70;0.47;;;21.00;1.00;;;;;;5008525;28;20250;-88
2023/08/03 09:08:27;;;;;;;1.23;0.40;;;20.90;1.00;;;;;;5011371;28;20182;-87
2023/08/03 09:10:55;;;;;;;0.80;0.30;;;20.80;1.00;;;;;;5012142;28;20270;-88
2023/08/03 09:13:36;;;;;;;2.30;0.40;;;20.90;1.00;;;;;;5007466;28;21073;-86
2023/08/03 09:16:02;;;;;;;1.70;0.40;;;21.10;1.00;;;;;;5007173;28;20211;-87
2023/08/03 09:18:30;;;;;;;0.85;0.32;;;21.50;1.00;;;;;;5008118;28;20194;-87
2023/08/03 09:21:16;;;;;;;0.73;0.30;;;21.80;1.00;;;;;;5009230;28;20274;-89
2023/08/03 09:23:42;;;;;;;0.55;0.30;;;22.00;1.00;;;;;;5009259;28;20195;-88
2023/08/03 09:26:09;;;;;;;2.35;0.30;;;22.00;1.00;;;;;;5006865;28;20243;-85
2023/08/03 09:28:36;;;;;;;0.32;0.30;;;21.60;1.00;;;;;;5007179;28;20252;-87
2023/08/03 09:31:03;;;;;;;0.82;0.30;;;21.50;1.00;;;;;;5008492;28;20175;-89
2023/08/03 09:33:29;;;;;;;0.90;0.40;;;21.40;1.00;;;;;;5008113;28;20183;-88
2023/08/03 09:36:10;;;;;;;1.17;0.40;;;21.70;1.00;;;;;;5008890;28;20210;-88
2023/08/03 09:38:39;;;;;;;8.13;1.83;;;21.60;1.00;;;;;;5008312;28;20218;-88
2023/08/03 09:41:05;;;;;;;6.65;1.67;;;21.50;1.00;;;;;;5008257;28;20211;-88
2023/08/03 09:43:31;;;;;;;2.53;1.05;;;21.20;1.00;;;;;;5007500;28;20227;-88
2023/08/03 09:45:58;;;;;;;1.08;0.40;;;20.90;1.00;;;;;;5007669;28;20211;-89
2023/08/03 09:48:25;;;;;;;3.00;0.40;;;20.80;1.00;;;;;;5008448;28;20205;-88
2023/08/03 09:50:56;;;;;;;1.88;0.55;;;20.50;1.00;;;;;;5007538;28;20486;-90
2023/08/03 09:53:32;;;;;;;3.58;0.30;;;20.30;1.00;;;;;;5023070;28;20239;-87
2023/08/03 09:56:00;;;;;;;1.13;0.43;;;20.50;1.00;;;;;;5007336;28;20214;-88
2023/08/03 09:58:51;;;;;;;0.57;0.20;;;20.60;1.00;;;;;;5022809;28;20210;-87
2023/08/03 10:01:22;;;;;;;0.60;0.30;;;20.60;1.00;;;;;;5008233;28;20183;-88
2023/08/03 10:03:59;;;;;;;1.13;0.30;;;20.40;1.00;;;;;;5012967;28;20214;-88
2023/08/03 10:06:27;;;;;;;1.23;0.28;;;20.10;1.00;;;;;;5013750;28;20223;-88
2023/08/03 10:09:00;;;;;;;0.52;0.25;;;19.90;1.00;;;;;;5011049;28;20266;-88
2023/08/03 10:11:33;;;;;;;1.17;0.30;;;20.10;1.00;;;;;;5030450;28;20206;-89
2023/08/03 10:14:03;;;;;;;0.90;0.20;;;20.10;1.00;;;;;;5012276;28;20211;-88
2023/08/03 10:16:31;;;;;;;0.47;0.30;;;20.10;1.00;;;;;;5013357;28;20195;-87
2023/08/03 10:18:57;;;;;;;1.20;0.30;;;19.90;1.00;;;;;;5011432;28;20637;-87
2023/08/03 10:21:23;;;;;;;1.10;0.20;;;19.80;58.60;;;;;;5013308;28;20187;-88
2023/08/03 10:24:08;;;;;;;0.50;0.32;;;19.70;99.90;;;;;;5012249;28;20290;-88
2023/08/03 10:26:34;;;;;;;2.22;0.73;;;19.60;99.90;;;;;;5010714;28;20211;-88
2023/08/03 10:29:12;;;;;;;0.40;0.30;;;19.40;99.90;;;;;;5013504;28;20264;-87
2023/08/03 10:31:54;;;;;;;0.30;0.30;;;19.00;1.00;;;;;;5016290;28;20210;-87
2023/08/03 10:34:29;;;;;;;0.65;0.52;;;18.60;1.00;;;;;;5000625;28;20182;-86
2023/08/03 10:36:58;;;;;;;1.00;0.40;;;18.30;99.90;;;;;;5018265;28;20285;-88
2023/08/03 10:39:54;;;;;;;0.47;0.40;;;18.30;1.00;;;;;;5016357;28;20213;-87
2023/08/03 10:42:24;;;;;;;0.77;0.35;;;18.50;71.30;;;;;;5012635;28;20202;-87
2023/08/03 10:44:50;;;;;;;0.32;0.32;;;18.60;1.00;;;;;;5016932;28;20191;-87
2023/08/03 10:47:32;;;;;;;0.52;0.52;;;18.90;1.00;;;;;;5014966;28;20565;-88
2023/08/03 10:49:58;;;;;;;0.30;0.30;;;19.20;99.90;;;;;;5015624;28;20239;-87
2023/08/03 10:52:28;;;;;;;0.98;0.50;;;19.30;1.00;;;;;;5015416;28;20219;-88
2023/08/03 10:54:54;;;;;;;0.40;0.28;;;19.40;99.90;;;;;;5015212;28;20175;-88
2023/08/03 10:57:32;;;;;;;1.65;0.30;;;19.20;99.90;;;;;;5016240;28;20208;-89
2023/08/03 10:59:59;;;;;;;1.45;0.60;;;18.90;99.90;;;;;;5015265;28;20191;-88
2023/08/03 11:02:35;;;;;;;1.75;0.60;;;18.70;1.00;;;;;;5015618;28;20195;-87
2023/08/03 11:05:06;;;;;;;1.42;0.40;;;18.60;1.00;;;;;;5014347;28;20241;-88
2023/08/03 11:07:40;;;;;;;1.45;0.40;;;18.80;99.90;;;;;;5014331;28;20200;-88
2023/08/03 11:10:29;;;;;;;0.93;0.40;;;18.90;99.90;;;;;;5013815;28;20265;-88
2023/08/03 11:12:55;;;;;;;0.70;0.40;;;19.00;1.00;;;;;;5013100;28;20176;-88
2023/08/03 11:15:20;;;;;;;0.77;0.40;;;19.20;99.90;;;;;;5013131;28;20278;-88
2023/08/03 11:17:49;;;;;;;1.95;0.40;;;19.00;99.90;;;;;;5012829;28;20184;-88
2023/08/03 11:20:15;;;;;;;0.98;0.30;;;19.10;99.90;;;;;;5014305;28;20179;-88
2023/08/03 11:22:41;;;;;;;1.77;0.43;;;18.90;99.90;;;;;;5013101;28;20203;-88
2023/08/03 11:25:07;;;;;;;0.75;0.40;;;19.00;99.90;;;;;;5013709;28;20199;-88
2023/08/03 11:27:34;;;;;;;0.90;0.35;;;19.00;99.90;;;;;;5013650;28;20757;-88
2023/08/03 11:30:02;;;;;;;0.88;0.50;;;19.20;99.90;;;;;;5013196;28;20180;-88
2023/08/03 11:32:31;;;;;;;0.47;0.45;;;19.50;99.90;;;;;;5012571;28;20279;-88
2023/08/03 11:35:04;;;;;;;0.60;0.35;;;19.80;86.80;;;;;;5012684;28;20624;-87
2023/08/03 11:37:35;;;;;;;1.48;0.50;;;20.00;1.00;;;;;;5012974;28;20203;-87
2023/08/03 11:40:04;;;;;;;1.30;0.40;;;20.00;1.00;;;;;;5012054;28;20187;-86
2023/08/03 11:42:30;;;;;;;1.40;0.50;;;20.00;1.00;;;;;;5012725;28;20191;-88
2023/08/03 11:44:56;;;;;;;0.30;0.30;;;20.00;1.00;;;;;;5014299;28;20688;-88
2023/08/03 11:47:22;;;;;;;0.57;0.40;;;20.10;1.00;;;;;;5013961;28;20203;-88
2023/08/03 11:49:48;;;;;;;1.20;0.38;;;20.20;1.00;;;;;;5012667;28;20206;-89
2023/08/03 11:52:21;;;;;;;0.93;0.47;;;20.40;1.00;;;;;;5012898;28;20190;-87
2023/08/03 11:54:48;;;;;;;0.57;0.43;;;20.50;1.00;;;;;;5012109;28;20175;-87
2023/08/03 12:00:01;;;;;;;0.65;0.45;;;19.80;1.00;;;;;;5014563;28;20214;-87
2023/08/03 12:02:43;;;;;;;0.40;0.32;;;19.60;1.00;;;;;;5011784;28;20270;-88
2023/08/03 12:05:10;;;;;;;0.88;0.45;;;19.60;1.00;;;;;;5012222;28;20258;-88
2023/08/03 12:07:36;;;;;;;2.05;0.30;;;19.70;1.00;;;;;;5013655;28;20196;-87
2023/08/03 12:10:14;;;;;;;1.27;0.40;;;20.00;1.00;;;;;;5012301;28;20180;-87
2023/08/03 12:12:41;;;;;;;0.73;0.32;;;20.30;99.90;;;;;;5012285;28;20956;-87
2023/08/03 12:15:07;;;;;;;0.73;0.45;;;20.40;99.90;;;;;;5012404;28;20191;-88
2023/08/03 12:17:33;;;;;;;0.47;0.30;;;20.70;99.90;;;;;;5012342;28;20203;-87
2023/08/03 12:20:00;;;;;;;1.30;0.28;;;21.00;99.90;;;;;;5012993;28;20191;-88
2023/08/03 12:22:34;;;;;;;0.32;0.30;;;20.80;99.90;;;;;;5012315;28;20202;-87
2023/08/03 12:25:08;;;;;;;1.52;0.40;;;20.70;99.90;;;;;;5012677;28;20223;-89
2023/08/03 12:27:42;;;;;;;0.30;0.20;;;20.60;99.90;;;;;;5013125;28;20227;-87
2023/08/03 12:30:08;;;;;;;0.73;0.38;;;20.80;99.90;;;;;;5013202;28;20182;-88
2023/08/03 12:32:35;;;;;;;0.38;0.30;;;20.90;99.90;;;;;;5013725;28;20168;-90
2023/08/03 12:35:05;;;;;;;0.43;0.38;;;20.80;99.90;;;;;;5017097;28;20194;-91
2023/08/03 12:37:31;;;;;;;0.32;0.32;;;20.70;99.90;;;;;;5016171;28;20207;-86
2023/08/03 12:39:56;;;;;;;1.10;0.30;;;20.70;99.90;;;;;;5013882;28;20282;-86
2023/08/03 12:42:22;;;;;;;0.50;0.50;;;20.30;99.90;;;;;;5013102;28;20800;-87
2023/08/03 12:44:49;;;;;;;0.57;0.40;;;20.20;99.90;;;;;;5015051;28;20211;-87
2023/08/03 12:47:23;;;;;;;0.30;0.30;;;20.20;99.90;;;;;;5017177;28;20282;-88
2023/08/03 12:49:48;;;;;;;0.35;0.30;;;20.90;99.90;;;;;;5015516;28;20183;-87
2023/08/03 12:52:14;;;;;;;0.65;0.40;;;19.80;99.90;;;;;;5016027;28;20188;-88
2023/08/03 12:54:39;;;;;;;3.22;0.60;;;19.70;99.90;;;;;;5015334;28;20186;-88
2023/08/03 12:57:05;;;;;;;1.05;0.30;;;19.90;99.90;;;;;;5016136;28;20214;-87